Terminal Aerodrome Forecast
Issued by NWS

Home | Current Version | Previous Version | Text Only | Print | Product List | Glossary On
Versions: 1 2 3 4 5 6 7 8 9 10 11 12 13 14 15 16 17 18 19 20 21 22 23 24 25 26 27 28 29 30 31
170
FTUS44 KFWD 071138
TAFFTW
TAF
KFTW 071138Z 0712/0812 02005KT P6SM FEW035 BKN150
     FM071600 14005KT P6SM BKN040
     FM072200 36010KT P6SM BKN025
     FM080200 36015G25KT P6SM BKN015
     FM080400 36019G29KT 6SM -DZ BKN012
     FM080900 01018G28KT P6SM BKN020=

USA.gov is the U.S. government's official web portal to all federal, state and local government web resources and services.